KAFO

Afton Municipal Airport

Afton, Wyoming, USA
METAR KAFO 151455Z AUTO 00000KT 10SM CLR 10/01 A3022 RMK AO2
Observed Flight Rules
Aug-15 @ 14:55 UTC (6 minutes ago) Visual Flight Rules
Visibility Clouds
10 miles
  • Clear skies
Temperatures Readings
Current 10°C / 50°F
Dewpoint 1°C / 34°F
Humidity 54%
Altimeter 30.22" Hg
Pressure 1023 hPa
Elevation 1897
METAR KAFO 151455Z AUTO 00000KT 10SM CLR 10/01 A3022 RMK AO2
Observed Flight Rules
Aug-15 @ 14:55 UTC
(6 minutes ago)
VFR
Clouds
  • Clear skies
Temperature Dewpoint
10°C / 50°F 1°C / 34°F
Humidity Altimeter Pressure
54% 30.22" Hg 1023 hPa